Time;durP1;ratioP1;P1;durP2;ratioP2;P2;SDS_P1;SDS_P2;PMS_P1;PMS_P2;Temp;Humidity;BMP_temperature;BMP_pressure;BME280_temperature;BME280_humidity;BME280_pressure;Samples;Min_cycle;Max_cycle;Signal;HPM_P1;HPM_P2
2024/01/27 00:01:15;;;;;;;7.60;4.60;;;;;;;3.68;100.00;99807.73;103427;1250;138266;-69
2024/01/27 00:03:44;;;;;;;8.00;4.20;;;;;;;3.71;100.00;99811.31;103657;1255;96980;-68
2024/01/27 00:06:10;;;;;;;7.30;4.50;;;;;;;3.74;100.00;99822.44;103544;1250;107341;-68
2024/01/27 00:08:37;;;;;;;6.70;2.70;;;;;;;3.76;100.00;99813.13;103979;1251;138836;-68
2024/01/27 00:11:04;;;;;;;7.10;3.10;;;;;;;3.77;100.00;99820.20;103624;1251;109878;-68
2024/01/27 00:13:31;;;;;;;6.90;3.00;;;;;;;3.74;100.00;99826.58;103572;1250;137337;-69
2024/01/27 00:15:58;;;;;;;5.00;2.00;;;;;;;3.70;100.00;99822.67;104544;1251;95060;-69
2024/01/27 00:18:25;;;;;;;4.50;2.00;;;;;;;3.64;100.00;99836.49;103532;1251;107602;-68
2024/01/27 00:20:52;;;;;;;5.10;2.20;;;;;;;3.61;100.00;99844.61;103719;1250;138015;-68
2024/01/27 00:23:19;;;;;;;5.10;1.70;;;;;;;3.60;100.00;99854.95;104014;1251;110792;-68
2024/01/27 00:25:46;;;;;;;5.20;1.60;;;;;;;3.60;100.00;99866.11;103418;1256;138283;-67
2024/01/27 00:28:13;;;;;;;5.10;1.90;;;;;;;3.60;100.00;99872.30;103934;1250;95058;-69
2024/01/27 00:30:40;;;;;;;4.20;1.60;;;;;;;3.60;100.00;99869.55;103726;1256;107341;-68
2024/01/27 00:33:07;;;;;;;3.40;1.40;;;;;;;3.60;100.00;99883.98;103573;1251;98101;-69
2024/01/27 00:35:34;;;;;;;4.90;1.50;;;;;;;3.62;100.00;99884.84;103558;1255;110350;-67
2024/01/27 00:38:01;;;;;;;5.40;1.70;;;;;;;3.62;100.00;99892.05;103737;1255;138268;-68
2024/01/27 00:40:28;;;;;;;8.80;2.30;;;;;;;3.61;99.83;99891.20;103572;1254;96864;-68
2024/01/27 00:42:55;;;;;;;8.30;2.00;;;;;;;3.59;99.68;99891.73;103400;1250;138173;-68
2024/01/27 00:45:23;;;;;;;5.10;1.80;;;;;;;3.55;99.39;99902.41;103597;1254;96431;-68
2024/01/27 00:47:50;;;;;;;7.70;2.00;;;;;;;3.51;99.09;99907.79;103636;1250;109514;-69
2024/01/27 00:50:17;;;;;;;7.10;2.00;;;;;;;3.50;99.49;99909.17;103495;1250;138222;-67
2024/01/27 00:52:44;;;;;;;9.00;2.40;;;;;;;3.47;99.34;99908.86;103514;1255;96433;-68
2024/01/27 00:55:11;;;;;;;8.20;2.00;;;;;;;3.45;99.15;99921.77;103401;1255;137988;-68
2024/01/27 00:57:39;;;;;;;8.90;2.70;;;;;;;3.46;99.19;99917.48;103709;1250;96371;-68
2024/01/27 01:00:08;;;;;;;5.80;1.80;;;;;;;3.45;99.23;99924.86;103732;1255;110669;-68
2024/01/27 01:02:35;;;;;;;7.10;2.10;;;;;;;3.45;98.97;99931.74;103415;1251;138011;-67
2024/01/27 01:05:03;;;;;;;6.40;1.90;;;;;;;3.43;98.82;99927.45;104530;1250;96348;-68
2024/01/27 01:07:30;;;;;;;6.10;1.80;;;;;;;3.41;98.71;99934.17;103965;1256;137897;-68
2024/01/27 01:09:57;;;;;;;7.50;2.00;;;;;;;3.42;98.55;99935.04;103636;1256;96535;-68
2024/01/27 01:12:25;;;;;;;8.40;2.00;;;;;;;3.41;98.46;99940.38;103559;1251;109805;-68
2024/01/27 01:14:52;;;;;;;9.00;2.30;;;;;;;3.41;98.38;99942.26;103768;1256;139647;-67
2024/01/27 01:17:19;;;;;;;10.60;2.30;;;;;;;3.39;98.11;99944.48;104246;1253;94388;-68
2024/01/27 01:19:46;;;;;;;6.10;1.80;;;;;;;3.39;98.03;99949.13;103612;1251;137374;-68
2024/01/27 01:22:13;;;;;;;7.40;1.80;;;;;;;3.35;97.91;99958.80;104213;1251;96459;-68
2024/01/27 01:24:40;;;;;;;5.60;2.10;;;;;;;3.33;97.62;99956.74;103595;1250;109949;-68
2024/01/27 01:27:07;;;;;;;8.70;1.90;;;;;;;3.33;97.90;99964.82;103590;1251;108191;-67
2024/01/27 02:03:57;;;;;;;12.00;2.80;;;;;;;3.27;98.58;99979.13;100564;1293;636207;-67
2024/01/27 02:06:24;;;;;;;9.50;2.50;;;;;;;3.29;98.45;99987.70;103030;1260;95137;-66
2024/01/27 02:08:52;;;;;;;12.80;2.50;;;;;;;3.31;98.37;99987.86;102926;1263;136239;-67
2024/01/27 02:11:19;;;;;;;13.80;2.50;;;;;;;3.29;98.19;99989.42;103073;1260;94456;-67
2024/01/27 02:13:47;;;;;;;9.20;2.60;;;;;;;3.31;98.49;99988.90;102883;1260;137002;-67
2024/01/27 02:16:17;;;;;;;9.90;2.70;;;;;;;3.31;98.39;99991.46;103073;1260;108123;-66
2024/01/27 02:18:44;;;;;;;9.60;2.40;;;;;;;3.34;98.81;99994.88;103000;1257;94427;-66
2024/01/27 02:21:11;;;;;;;6.40;2.40;;;;;;;3.38;98.72;99997.26;103149;1256;137255;-67
2024/01/27 02:23:42;;;;;;;13.80;2.60;;;;;;;3.39;98.79;100002.41;103472;1254;94427;-68
2024/01/27 02:26:09;;;;;;;10.50;2.90;;;;;;;3.41;98.46;99993.13;103712;1254;137260;-67
2024/01/27 02:28:36;;;;;;;14.30;2.60;;;;;;;3.43;98.73;100000.16;103527;1254;107926;-67
2024/01/27 02:31:03;;;;;;;12.20;2.80;;;;;;;3.45;98.65;100002.38;103583;1254;95013;-67
2024/01/27 02:33:30;;;;;;;12.20;3.30;;;;;;;3.47;98.61;100003.05;103473;1257;108570;-68
2024/01/27 02:35:57;;;;;;;11.90;2.70;;;;;;;3.45;98.29;100003.41;103365;1256;95192;-67
2024/01/27 02:38:24;;;;;;;12.00;2.90;;;;;;;3.42;98.48;100000.35;103449;1254;137157;-67
2024/01/27 02:40:51;;;;;;;11.40;2.90;;;;;;;3.39;98.18;99999.99;103353;1258;107609;-68
2024/01/27 02:43:18;;;;;;;10.00;2.60;;;;;;;3.36;98.15;100005.87;103352;1254;137938;-67
2024/01/27 02:45:45;;;;;;;13.00;2.60;;;;;;;3.35;98.35;100010.17;103503;1254;108575;-66
2024/01/27 02:48:12;;;;;;;9.00;2.60;;;;;;;3.35;98.22;100014.98;103515;1258;94959;-67
2024/01/27 02:50:39;;;;;;;8.80;2.40;;;;;;;3.38;98.65;100015.64;103263;1254;137519;-68
2024/01/27 02:53:06;;;;;;;11.30;2.60;;;;;;;3.41;98.59;100023.19;103391;1259;107632;-67
2024/01/27 02:55:33;;;;;;;12.90;3.10;;;;;;;3.40;98.06;100026.97;103308;1254;137930;-67
2024/01/27 02:57:59;;;;;;;9.00;2.40;;;;;;;3.38;98.12;100024.23;103406;1254;107264;-68
2024/01/27 03:00:26;;;;;;;12.10;2.30;;;;;;;3.37;98.01;100032.49;103325;1256;95105;-67
2024/01/27 03:02:54;;;;;;;9.50;2.70;;;;;;;3.36;97.94;100040.74;103252;1257;137870;-67
2024/01/27 03:05:21;;;;;;;15.10;2.60;;;;;;;3.37;98.04;100038.85;103738;1257;107344;-68
2024/01/27 03:07:48;;;;;;;11.00;2.90;;;;;;;3.38;98.14;100041.42;103138;1256;138181;-67
2024/01/27 03:10:15;;;;;;;10.20;2.50;;;;;;;3.41;98.11;100035.23;103315;1257;107233;-67
2024/01/27 03:12:41;;;;;;;11.70;3.00;;;;;;;3.41;97.81;100027.67;103553;1256;94973;-67
2024/01/27 03:15:10;;;;;;;15.00;3.40;;;;;;;3.40;97.68;100037.63;103562;1257;138092;-67
2024/01/27 03:17:37;;;;;;;14.40;3.10;;;;;;;3.39;97.79;100042.45;103580;1256;107017;-67
2024/01/27 03:20:04;;;;;;;12.00;2.80;;;;;;;3.37;97.87;100044.19;103304;1257;137120;-67
2024/01/27 03:22:31;;;;;;;10.50;3.00;;;;;;;3.37;97.60;100050.02;103711;1256;106802;-65
2024/01/27 03:24:58;;;;;;;10.30;3.10;;;;;;;3.35;97.72;100048.84;103513;1257;95099;-64
2024/01/27 03:27:25;;;;;;;13.30;3.20;;;;;;;3.33;97.64;100047.98;103395;1256;138653;-66
2024/01/27 03:29:52;;;;;;;12.70;2.90;;;;;;;3.32;97.83;100051.26;103286;1256;108195;-67
2024/01/27 03:32:19;;;;;;;12.50;2.90;;;;;;;3.30;97.46;100049.55;103579;1256;137997;-67
2024/01/27 03:34:47;;;;;;;12.20;3.20;;;;;;;3.29;97.63;100050.42;103722;1257;106263;-66
2024/01/27 03:37:14;;;;;;;11.30;2.80;;;;;;;3.32;97.74;100051.60;103125;1255;138047;-66
2024/01/27 03:39:43;;;;;;;11.40;3.00;;;;;;;3.34;97.72;100053.48;103271;1257;108423;-66
2024/01/27 03:42:10;;;;;;;10.90;3.40;;;;;;;3.34;97.44;100055.37;103357;1259;107644;-66
2024/01/27 03:44:37;;;;;;;13.40;3.00;;;;;;;3.36;97.49;100054.34;103222;1257;139122;-64
2024/01/27 03:47:04;;;;;;;13.70;2.90;;;;;;;3.35;97.48;100055.88;103278;1256;108526;-66
2024/01/27 03:49:30;;;;;;;11.00;2.80;;;;;;;3.35;97.60;100054.34;103440;1256;137614;-66
2024/01/27 03:51:57;;;;;;;14.00;3.30;;;;;;;3.34;97.25;100058.11;103597;1257;108416;-66
2024/01/27 03:54:24;;;;;;;10.30;2.80;;;;;;;3.29;97.09;100053.69;103549;1254;109123;-66
2024/01/27 03:56:51;;;;;;;16.40;3.00;;;;;;;3.26;96.86;100061.79;103261;1254;138031;-66
2024/01/27 03:59:18;;;;;;;13.70;3.00;;;;;;;3.26;97.10;100064.20;103511;1259;108398;-67
2024/01/27 04:01:45;;;;;;;13.70;3.00;;;;;;;3.25;97.06;100062.15;103354;1259;138000;-67
2024/01/27 04:04:12;;;;;;;9.10;2.60;;;;;;;3.26;96.89;100066.59;103522;1254;108657;-66
2024/01/27 04:06:40;;;;;;;9.80;2.40;;;;;;;3.26;97.12;100071.94;103367;1254;105697;-67
2024/01/27 04:09:08;;;;;;;11.10;3.00;;;;;;;3.28;97.15;100071.73;103201;1259;137954;-66
2024/01/27 04:11:36;;;;;;;11.50;3.00;;;;;;;3.31;96.93;100073.09;103466;1257;107481;-66
2024/01/27 04:14:03;;;;;;;14.00;3.90;;;;;;;3.31;96.99;100074.64;103224;1257;137507;-66
2024/01/27 04:16:30;;;;;;;15.70;3.10;;;;;;;3.33;96.83;100076.35;103238;1254;107865;-65
2024/01/27 04:18:57;;;;;;;14.50;3.50;;;;;;;3.33;96.71;100077.89;103278;1254;108434;-65
2024/01/27 04:21:24;;;;;;;16.30;3.40;;;;;;;3.32;96.77;100070.51;103394;1254;137858;-65
2024/01/27 04:23:51;;;;;;;15.00;3.40;;;;;;;3.28;96.70;100076.89;103408;1257;108501;-66
2024/01/27 04:26:18;;;;;;;13.60;3.70;;;;;;;3.25;96.51;100079.48;103365;1254;138463;-66
2024/01/27 04:28:45;;;;;;;8.60;2.40;;;;;;;3.22;96.73;100079.48;103464;1254;111106;-66
2024/01/27 04:31:12;;;;;;;9.00;3.00;;;;;;;3.21;96.73;100079.14;103251;1254;137783;-65
2024/01/27 04:33:39;;;;;;;9.20;3.10;;;;;;;3.22;96.76;100081.72;103403;1254;95080;-66
2024/01/27 04:36:08;;;;;;;11.70;3.30;;;;;;;3.26;97.12;100085.67;103568;1255;107681;-65
2024/01/27 04:38:35;;;;;;;10.20;3.20;;;;;;;3.30;97.10;100085.14;103471;1256;137611;-65
2024/01/27 04:41:03;;;;;;;15.70;3.90;;;;;;;3.29;96.76;100083.94;103593;1251;107905;-66
2024/01/27 04:43:30;;;;;;;12.70;3.50;;;;;;;3.27;96.73;100091.17;103424;1256;138787;-65
2024/01/27 04:45:57;;;;;;;18.80;4.10;;;;;;;3.20;96.46;100091.71;103523;1256;95267;-66
2024/01/27 04:48:23;;;;;;;11.10;2.70;;;;;;;3.18;96.80;100100.48;103541;1253;108569;-66
2024/01/27 04:50:51;;;;;;;13.40;3.00;;;;;;;3.16;96.72;100102.38;103534;1250;139243;-65
2024/01/27 04:53:17;;;;;;;8.70;3.00;;;;;;;3.15;96.96;100107.88;103588;1251;108045;-66
2024/01/27 04:55:44;;;;;;;7.90;2.70;;;;;;;3.15;97.11;100110.27;103786;1250;138185;-67
2024/01/27 04:58:11;;;;;;;12.10;3.50;;;;;;;3.20;97.46;100107.67;103599;1255;95125;-66
2024/01/27 05:00:38;;;;;;;14.60;3.50;;;;;;;3.21;97.25;100110.77;103935;1255;108027;-67
2024/01/27 05:03:07;;;;;;;18.20;3.60;;;;;;;3.19;97.10;100109.73;103885;1255;137408;-67
2024/01/27 05:05:34;;;;;;;14.00;4.00;;;;;;;3.20;97.25;100112.83;103649;1250;107897;-66
2024/01/27 05:08:02;;;;;;;17.80;4.30;;;;;;;3.20;97.24;100108.88;103123;1250;1003736;-66
2024/01/27 05:10:29;;;;;;;11.20;3.20;;;;;;;3.13;97.31;100110.11;103840;1255;95322;-65
2024/01/27 05:12:56;;;;;;;14.70;2.80;;;;;;;3.14;97.06;100114.59;103579;1251;107421;-65
2024/01/27 05:15:23;;;;;;;11.40;3.30;;;;;;;3.12;97.17;100114.25;103450;1250;137860;-66
2024/01/27 05:17:50;;;;;;;8.90;2.80;;;;;;;3.14;97.25;100114.41;103603;1250;108415;-65
2024/01/27 05:20:17;;;;;;;12.80;3.10;;;;;;;3.17;97.23;100106.49;103451;1250;137565;-66
2024/01/27 05:22:44;;;;;;;14.70;3.70;;;;;;;3.18;97.01;100111.64;103609;1250;96783;-66
2024/01/27 05:25:11;;;;;;;17.70;4.10;;;;;;;3.19;97.21;100119.19;103468;1254;138027;-66
2024/01/27 05:27:39;;;;;;;13.50;3.70;;;;;;;3.18;97.08;100116.79;103585;1251;95090;-65
2024/01/27 05:30:07;;;;;;;12.80;3.80;;;;;;;3.18;96.91;100116.63;103648;1250;108237;-65
2024/01/27 05:32:34;;;;;;;12.90;3.40;;;;;;;3.13;96.87;100115.80;103442;1256;137199;-66
2024/01/27 05:35:02;;;;;;;16.10;3.50;;;;;;;3.09;96.55;100105.68;103702;1251;95084;-66
2024/01/27 05:37:29;;;;;;;15.70;3.50;;;;;;;3.06;96.93;100114.45;103904;1253;139182;-66
2024/01/27 05:39:56;;;;;;;13.60;3.10;;;;;;;3.06;97.12;100108.27;103733;1250;94998;-66
2024/01/27 05:42:23;;;;;;;10.10;3.00;;;;;;;3.07;97.12;100101.74;103885;1250;108903;-66
2024/01/27 05:44:50;;;;;;;16.80;3.70;;;;;;;3.07;96.94;100100.88;103607;1253;137461;-65
2024/01/27 05:47:17;;;;;;;12.80;4.00;;;;;;;3.08;97.07;100097.95;102868;1256;1003310;-66
2024/01/27 05:49:45;;;;;;;19.50;3.90;;;;;;;3.08;96.95;100100.71;103452;1256;137884;-66
2024/01/27 05:52:12;;;;;;;14.70;3.90;;;;;;;3.07;97.06;100098.82;104247;1253;94998;-66
2024/01/27 05:54:51;;;;;;;11.50;3.30;;;;;;;3.04;97.20;100097.09;104854;1250;109384;-67
2024/01/27 05:57:18;;;;;;;12.10;3.40;;;;;;;3.03;97.02;100101.73;102904;1250;1002467;-67
2024/01/27 05:59:45;;;;;;;10.90;2.60;;;;;;;3.05;97.05;100098.98;103603;1250;96257;-67
2024/01/27 06:02:12;;;;;;;11.10;3.20;;;;;;;3.08;96.98;100098.98;103608;1250;137957;-67
2024/01/27 06:04:38;;;;;;;15.00;3.70;;;;;;;3.11;96.83;100099.31;103627;1256;95150;-66
2024/01/27 06:07:06;;;;;;;13.40;3.60;;;;;;;3.11;96.52;100099.48;103918;1250;108201;-66
2024/01/27 06:09:33;;;;;;;15.80;3.50;;;;;;;3.13;96.31;100104.98;103676;1250;107066;-65
2024/01/27 06:12:02;;;;;;;16.20;3.80;;;;;;;3.13;95.91;100102.56;103863;1250;94524;-67
2024/01/27 06:14:28;;;;;;;18.00;3.90;;;;;;;3.12;95.80;100109.96;103882;1252;137440;-66
2024/01/27 06:16:55;;;;;;;17.10;3.80;;;;;;;3.09;95.49;100108.25;103560;1256;96431;-66
2024/01/27 06:19:22;;;;;;;12.10;2.80;;;;;;;3.03;95.68;100113.08;103573;1256;137464;-65
2024/01/27 06:21:49;;;;;;;13.40;3.30;;;;;;;2.98;95.35;100108.45;103605;1251;107046;-66
2024/01/27 06:24:16;;;;;;;9.40;2.40;;;;;;;2.97;95.38;100109.32;103573;1255;96463;-66
2024/01/27 06:26:43;;;;;;;10.50;3.20;;;;;;;2.96;95.54;100118.43;103507;1250;137755;-66
2024/01/27 06:29:10;;;;;;;13.90;3.40;;;;;;;2.98;95.53;100115.67;103619;1253;96448;-66
2024/01/27 06:31:37;;;;;;;15.60;4.20;;;;;;;2.96;95.46;100120.66;103510;1253;138063;-66
2024/01/27 06:34:04;;;;;;;12.40;4.00;;;;;;;2.96;95.89;100126.34;103559;1255;107756;-66
2024/01/27 06:36:32;;;;;;;22.40;4.50;;;;;;;2.93;95.67;100121.54;104186;1253;95605;-66
2024/01/27 06:38:59;;;;;;;11.60;3.10;;;;;;;2.86;96.04;100121.55;103503;1250;137713;-66
2024/01/27 06:41:26;;;;;;;16.10;3.70;;;;;;;2.82;96.18;100122.24;103591;1250;96401;-66
2024/01/27 06:43:53;;;;;;;12.20;3.10;;;;;;;2.79;96.39;100133.77;103534;1250;137866;-66
2024/01/27 06:46:20;;;;;;;10.50;3.20;;;;;;;2.82;96.87;100137.36;103745;1250;107439;-66
2024/01/27 06:48:47;;;;;;;12.40;3.30;;;;;;;2.82;97.03;100139.93;103523;1253;96472;-66
2024/01/27 06:51:14;;;;;;;12.60;3.60;;;;;;;2.83;96.96;100143.19;103435;1250;137319;-66
2024/01/27 06:53:41;;;;;;;12.70;4.00;;;;;;;2.84;97.15;100149.37;103583;1250;96519;-66
2024/01/27 06:56:10;;;;;;;17.40;4.30;;;;;;;2.85;97.40;100151.42;103488;1250;137194;-66
2024/01/27 06:58:37;;;;;;;12.90;4.00;;;;;;;2.78;97.38;100146.47;103605;1250;107530;-66
2024/01/27 07:01:04;;;;;;;7.90;3.10;;;;;;;2.77;97.58;100145.45;103607;1250;96344;-66
2024/01/27 07:03:31;;;;;;;13.80;3.40;;;;;;;2.74;97.57;100148.55;103512;1251;108282;-68
2024/01/27 07:06:00;;;;;;;12.40;3.40;;;;;;;2.74;97.82;100147.35;103605;1253;96414;-67
2024/01/27 07:08:27;;;;;;;12.80;3.40;;;;;;;2.73;97.67;100149.07;103525;1255;138223;-66
2024/01/27 07:10:54;;;;;;;12.20;3.70;;;;;;;2.73;97.87;100154.39;103617;1255;107785;-66
2024/01/27 07:13:21;;;;;;;13.70;3.70;;;;;;;2.72;97.71;100149.58;103570;1251;138276;-66
2024/01/27 07:15:48;;;;;;;13.50;4.50;;;;;;;2.72;97.89;100150.44;103707;1250;106138;-65
2024/01/27 07:18:17;;;;;;;14.80;4.80;;;;;;;2.74;98.06;100155.77;103559;1250;96360;-66
2024/01/27 07:20:44;;;;;;;17.00;4.20;;;;;;;2.73;98.24;100155.42;103449;1250;137249;-66
2024/01/27 07:23:11;;;;;;;13.00;4.20;;;;;;;2.70;98.21;100161.95;103568;1250;108933;-67
2024/01/27 07:25:38;;;;;;;11.80;3.10;;;;;;;2.70;98.45;100161.60;103420;1253;138612;-66
2024/01/27 07:28:05;;;;;;;10.60;3.00;;;;;;;2.68;98.36;100166.73;103614;1250;107921;-66
2024/01/27 07:30:32;;;;;;;8.40;3.10;;;;;;;2.65;98.26;100165.54;103648;1254;96417;-66
2024/01/27 07:32:59;;;;;;;13.40;3.20;;;;;;;2.65;98.54;100159.88;103456;1255;138427;-66
2024/01/27 07:35:26;;;;;;;9.70;3.20;;;;;;;2.63;98.46;100161.08;103566;1250;107666;-66
2024/01/27 07:37:53;;;;;;;8.70;3.40;;;;;;;2.63;98.68;100164.86;103491;1250;137799;-66
2024/01/27 07:40:22;;;;;;;12.60;3.90;;;;;;;2.64;98.87;100168.45;103604;1251;108498;-66
2024/01/27 07:42:49;;;;;;;14.10;3.90;;;;;;;2.63;98.98;100168.64;103536;1253;96342;-66
2024/01/27 07:45:16;;;;;;;14.80;3.90;;;;;;;2.61;99.11;100169.66;103479;1250;137308;-66
2024/01/27 07:47:43;;;;;;;10.50;3.60;;;;;;;2.60;99.19;100165.90;103588;1250;107223;-66
2024/01/27 07:50:11;;;;;;;8.00;3.40;;;;;;;2.61;99.19;100173.45;103557;1251;138260;-66
2024/01/27 07:52:38;;;;;;;9.20;3.00;;;;;;;2.62;99.54;100172.42;103922;1255;107107;-67
2024/01/27 07:55:08;;;;;;;9.10;3.20;;;;;;;2.66;99.48;100180.13;103501;1250;96304;-68
2024/01/27 07:57:35;;;;;;;8.20;3.00;;;;;;;2.69;99.59;100179.80;104018;1254;110404;-67
2024/01/27 08:00:03;;;;;;;9.10;3.60;;;;;;;2.76;99.97;100186.83;103558;1251;107676;-68
2024/01/27 08:02:31;;;;;;;14.00;4.50;;;;;;;2.81;99.92;100182.52;103489;1250;137507;-69
2024/01/27 08:04:58;;;;;;;12.80;4.10;;;;;;;2.84;99.72;100186.11;103537;1255;107946;-68
2024/01/27 08:07:24;;;;;;;14.40;4.70;;;;;;;2.83;99.56;100191.95;103502;1250;137982;-69
2024/01/27 08:09:51;;;;;;;9.40;3.90;;;;;;;2.80;99.43;100188.36;103524;1255;109267;-69
2024/01/27 08:12:18;;;;;;;12.10;4.10;;;;;;;2.77;99.32;100189.73;103522;1253;107269;-68
2024/01/27 08:14:45;;;;;;;11.10;3.50;;;;;;;2.74;99.48;100189.75;103421;1250;138106;-69
2024/01/27 08:17:13;;;;;;;12.30;3.50;;;;;;;2.75;99.67;100198.16;103568;1256;108538;-69
2024/01/27 08:19:40;;;;;;;12.00;3.40;;;;;;;2.76;99.67;100192.84;103683;1250;138470;-69
2024/01/27 08:22:09;;;;;;;8.70;3.60;;;;;;;2.78;99.73;100195.23;103580;1256;110818;-70
2024/01/27 08:24:36;;;;;;;10.60;3.50;;;;;;;2.81;99.78;100198.48;104587;1251;107083;-68
2024/01/27 08:27:03;;;;;;;11.50;4.40;;;;;;;2.84;99.91;100192.64;103587;1250;138051;-69
2024/01/27 08:29:30;;;;;;;10.90;3.80;;;;;;;2.91;100.00;100197.61;104070;1256;106393;-66
2024/01/27 08:31:58;;;;;;;20.50;5.10;;;;;;;2.98;100.00;100200.00;103431;1250;139199;-68
2024/01/27 08:34:24;;;;;;;13.40;4.20;;;;;;;2.97;99.90;100206.54;103577;1250;109748;-68
2024/01/27 08:36:52;;;;;;;14.60;4.10;;;;;;;2.97;99.82;100209.97;103462;1254;107438;-67
2024/01/27 08:39:18;;;;;;;11.90;4.20;;;;;;;2.97;99.92;100208.08;103469;1255;138024;-67
2024/01/27 08:41:45;;;;;;;9.70;3.90;;;;;;;2.98;99.73;100207.39;103584;1250;107227;-68
2024/01/27 08:44:12;;;;;;;12.50;4.20;;;;;;;2.98;99.73;100206.02;103335;1253;138039;-65
2024/01/27 08:46:39;;;;;;;11.00;3.40;;;;;;;2.98;99.60;100211.69;103446;1250;110697;-65
2024/01/27 08:49:06;;;;;;;8.80;3.50;;;;;;;2.99;99.75;100212.19;103264;1255;107250;-65
2024/01/27 08:51:33;;;;;;;9.50;3.80;;;;;;;3.00;99.80;100215.11;103547;1253;96710;-67
2024/01/27 08:54:00;;;;;;;9.80;4.20;;;;;;;3.05;99.57;100217.85;103497;1250;107358;-65
2024/01/27 08:56:27;;;;;;;10.50;4.30;;;;;;;3.06;99.52;100219.58;103455;1251;137247;-64
2024/01/27 08:58:54;;;;;;;12.60;4.30;;;;;;;3.07;99.74;100223.02;103612;1251;109406;-67
2024/01/27 09:01:21;;;;;;;12.40;4.00;;;;;;;3.04;99.68;100224.55;103647;1256;137455;-65
2024/01/27 09:03:48;;;;;;;7.40;3.60;;;;;;;3.04;99.70;100229.86;103588;1250;96439;-65
2024/01/27 09:06:16;;;;;;;11.70;3.90;;;;;;;3.04;99.80;100237.08;103565;1256;107761;-65
2024/01/27 09:08:45;;;;;;;7.90;3.50;;;;;;;3.06;99.90;100238.82;103394;1254;138124;-66
2024/01/27 09:11:12;;;;;;;10.20;3.50;;;;;;;3.11;100.00;100244.64;103666;1250;111713;-68
2024/01/27 09:13:39;;;;;;;6.30;3.30;;;;;;;3.12;99.92;100244.48;103392;1250;138639;-70
2024/01/27 09:16:07;;;;;;;10.00;3.80;;;;;;;3.15;99.95;100253.05;103543;1253;96452;-68
2024/01/27 09:18:34;;;;;;;9.80;3.90;;;;;;;3.21;100.00;100255.78;103681;1250;108293;-71
2024/01/27 09:21:01;;;;;;;10.30;4.60;;;;;;;3.29;100.00;100258.70;103478;1250;138408;-70
2024/01/27 09:23:28;;;;;;;11.90;4.40;;;;;;;3.36;100.00;100259.86;103558;1256;110236;-68
2024/01/27 09:25:55;;;;;;;11.70;4.40;;;;;;;3.40;100.00;100262.94;103515;1250;137726;-69
2024/01/27 09:28:22;;;;;;;10.50;4.70;;;;;;;3.41;99.96;100265.54;103549;1253;96417;-68
2024/01/27 09:30:48;;;;;;;10.50;3.80;;;;;;;3.42;99.82;100265.04;103569;1255;107354;-68
2024/01/27 09:33:17;;;;;;;9.40;3.40;;;;;;;3.42;99.81;100268.98;103488;1250;138388;-68
2024/01/27 09:35:44;;;;;;;8.50;3.20;;;;;;;3.40;99.80;100275.15;103598;1251;109817;-68
2024/01/27 09:38:14;;;;;;;5.90;2.70;;;;;;;3.39;99.89;100277.39;104272;1250;137717;-68
2024/01/27 09:40:41;;;;;;;6.70;2.60;;;;;;;3.42;99.98;100282.20;103632;1250;96354;-68
2024/01/27 09:43:13;;;;;;;6.70;2.30;;;;;;;3.47;100.00;100280.99;103549;1251;108028;-68
2024/01/27 09:45:40;;;;;;;5.40;2.30;;;;;;;3.51;99.90;100285.79;103548;1253;96445;-68
2024/01/27 09:48:11;;;;;;;15.50;9.80;;;;;;;3.56;99.96;100283.35;103636;1254;109113;-67
2024/01/27 09:50:40;;;;;;;6.70;3.20;;;;;;;3.59;99.88;100287.65;103479;1253;137598;-68
2024/01/27 09:53:08;;;;;;;7.40;3.20;;;;;;;3.60;99.81;100291.80;103581;1255;96422;-67
2024/01/27 09:55:36;;;;;;;4.70;2.40;;;;;;;3.58;99.64;100297.61;102697;1255;1002916;-68
2024/01/27 09:58:04;;;;;;;4.60;2.10;;;;;;;3.57;99.42;100299.68;103588;1256;96515;-68
2024/01/27 10:00:32;;;;;;;4.30;2.10;;;;;;;3.56;99.54;100299.00;103558;1250;110493;-68
2024/01/27 10:02:59;;;;;;;4.80;2.20;;;;;;;3.55;99.34;100295.56;103425;1255;138355;-68
2024/01/27 10:05:28;;;;;;;3.20;1.90;;;;;;;3.54;99.11;100299.35;103528;1250;96447;-67
2024/01/27 10:07:55;;;;;;;3.00;1.60;;;;;;;3.53;99.25;100303.31;103449;1250;138565;-67
2024/01/27 10:10:24;;;;;;;4.60;2.00;;;;;;;3.56;99.31;100304.67;103693;1250;96440;-67
2024/01/27 10:12:53;;;;;;;3.80;1.80;;;;;;;3.53;99.04;100308.46;103540;1250;110310;-67
2024/01/27 10:15:24;;;;;;;5.30;2.00;;;;;;;3.53;99.32;100313.11;103809;1254;138068;-67
2024/01/27 10:17:51;;;;;;;5.30;2.10;;;;;;;3.53;99.38;100318.10;103538;1253;96494;-68
2024/01/27 10:20:18;;;;;;;3.60;2.10;;;;;;;3.48;98.95;100323.79;103474;1256;138061;-67
2024/01/27 10:22:47;;;;;;;3.70;1.70;;;;;;;3.47;99.46;100327.92;103429;1256;97085;-67
2024/01/27 10:25:14;;;;;;;5.40;1.90;;;;;;;3.50;99.77;100330.48;103586;1250;109489;-67
2024/01/27 10:27:42;;;;;;;2.80;1.60;;;;;;;3.54;99.81;100332.70;103428;1250;108507;-67
2024/01/27 10:30:18;;;;;;;4.90;1.80;;;;;;;3.58;99.73;100336.14;103541;1250;96471;-68
2024/01/27 10:32:55;;;;;;;4.30;2.00;;;;;;;3.62;99.74;100335.98;103742;1255;137547;-68
2024/01/27 10:35:22;;;;;;;3.90;2.00;;;;;;;3.64;99.35;100344.90;103499;1252;96494;-68
2024/01/27 10:37:52;;;;;;;3.00;1.90;;;;;;;3.65;99.46;100346.96;103453;1251;137317;-68
2024/01/27 10:40:25;;;;;;;7.50;2.30;;;;;;;3.68;99.39;100344.20;103513;1251;107555;-68
2024/01/27 10:43:03;;;;;;;4.20;2.50;;;;;;;3.68;99.58;100350.39;103538;1250;96441;-67
2024/01/27 10:45:35;;;;;;;4.30;1.90;;;;;;;3.68;99.48;100355.55;103426;1250;138092;-69
2024/01/27 10:48:02;;;;;;;4.00;2.00;;;;;;;3.71;99.67;100358.29;103546;1251;96311;-68
2024/01/27 10:50:30;;;;;;;2.60;1.50;;;;;;;3.72;99.39;100362.06;103508;1255;137979;-68
2024/01/27 10:52:59;;;;;;;3.50;1.70;;;;;;;3.72;98.89;100366.20;103587;1250;108733;-67
2024/01/27 10:55:26;;;;;;;4.20;2.10;;;;;;;3.74;99.35;100366.88;103813;1250;138157;-68
2024/01/27 10:57:55;;;;;;;5.70;3.40;;;;;;;3.76;98.83;100369.09;103600;1250;109812;-68
2024/01/27 11:00:24;;;;;;;5.60;2.60;;;;;;;3.76;99.08;100374.77;103504;1256;96522;-68
2024/01/27 11:02:54;;;;;;;4.60;2.30;;;;;;;3.76;99.03;100379.08;103539;1256;137034;-68
2024/01/27 11:05:25;;;;;;;4.40;2.00;;;;;;;3.73;98.78;100383.04;103842;1250;107810;-69
2024/01/27 11:07:52;;;;;;;2.80;1.80;;;;;;;3.71;98.62;100380.13;103370;1256;138102;-68
2024/01/27 11:10:19;;;;;;;2.50;1.70;;;;;;;3.65;98.00;100388.91;103548;1251;107310;-68
2024/01/27 11:12:48;;;;;;;3.10;1.90;;;;;;;3.61;98.13;100388.24;103550;1256;96554;-74
2024/01/27 11:15:15;;;;;;;3.70;2.00;;;;;;;3.60;98.18;100399.59;103577;1250;138484;-70
2024/01/27 11:17:44;;;;;;;3.50;1.80;;;;;;;3.64;99.24;100399.41;103615;1251;106287;-67
2024/01/27 11:20:15;;;;;;;6.30;2.10;;;;;;;3.74;99.88;100401.79;103580;1250;137737;-64
2024/01/27 11:22:43;;;;;;;3.40;1.90;;;;;;;3.84;100.00;100403.84;103728;1250;108028;-69
2024/01/27 11:25:18;;;;;;;3.60;2.20;;;;;;;3.96;99.94;100413.45;103604;1255;96532;-67
2024/01/27 11:27:46;;;;;;;3.10;2.30;;;;;;;3.99;99.84;100421.52;103589;1251;111115;-67
2024/01/27 11:30:28;;;;;;;3.00;2.10;;;;;;;3.99;99.07;100427.38;103511;1250;108143;-67
2024/01/27 11:32:57;;;;;;;4.20;2.10;;;;;;;4.00;99.22;100431.33;103656;1254;138034;-67
2024/01/27 11:35:25;;;;;;;3.90;2.10;;;;;;;4.02;98.99;100433.73;103735;1253;107379;-68
2024/01/27 11:37:52;;;;;;;11.60;5.80;;;;;;;4.07;99.37;100440.09;103624;1253;138216;-67
2024/01/27 11:40:19;;;;;;;2.60;1.90;;;;;;;4.10;98.94;100444.19;103528;1255;110672;-68
2024/01/27 11:42:54;;;;;;;2.40;1.70;;;;;;;4.12;98.55;100446.94;103515;1255;108550;-72
2024/01/27 11:45:21;;;;;;;2.60;1.80;;;;;;;4.15;98.55;100446.60;103441;1250;138326;-71
2024/01/27 11:47:48;;;;;;;2.40;2.00;;;;;;;4.24;98.06;100454.66;103616;1256;107425;-71
2024/01/27 11:50:17;;;;;;;5.10;2.90;;;;;;;4.25;97.85;100462.56;103446;1250;137990;-68